createdAt,value
2023-01-02T00:03:45.681Z,18.70
2023-01-02T00:08:39.235Z,30.85
2023-01-02T00:13:32.294Z,45.13
2023-01-02T00:18:25.826Z,39.10
2023-01-02T00:23:18.867Z,26.48
2023-01-02T00:28:12.617Z,30.05
2023-01-02T00:33:07.525Z,34.58
2023-01-02T00:38:01.257Z,27.70
2023-01-02T00:42:55.080Z,25.85
2023-01-02T00:47:49.240Z,24.08
2023-01-02T00:52:43.357Z,25.65
2023-01-02T00:57:36.561Z,25.40
2023-01-02T01:02:30.734Z,29.55
2023-01-02T01:07:23.976Z,35.53
2023-01-02T01:12:18.099Z,40.92
2023-01-02T01:17:11.594Z,41.63
2023-01-02T01:22:05.974Z,51.95
2023-01-02T01:27:00.172Z,55.45
2023-01-02T01:31:57.903Z,59.90
2023-01-02T01:36:52.364Z,51.30
2023-01-02T01:41:46.897Z,53.33
2023-01-02T01:46:43.204Z,52.50
2023-01-02T01:51:40.933Z,51.75
2023-01-02T01:56:37.388Z,59.55
2023-01-02T02:01:31.149Z,55.25
2023-01-02T02:06:25.105Z,51.28
2023-01-02T02:11:19.084Z,53.70
2023-01-02T02:16:17.796Z,56.25
2023-01-02T02:21:31.786Z,46.75
2023-01-02T02:26:40.116Z,39.65
2023-01-02T02:31:52.226Z,49.25
2023-01-02T02:36:52.171Z,45.08
2023-01-02T02:42:04.353Z,43.78
2023-01-02T02:47:01.453Z,44.85
2023-01-02T02:52:27.465Z,44.78
2023-01-02T02:57:22.026Z,47.08
2023-01-02T03:02:16.894Z,48.10
2023-01-02T03:07:35.895Z,50.35
2023-01-02T03:12:48.910Z,49.22
2023-01-02T03:18:05.744Z,49.97
2023-01-02T03:23:01.723Z,51.22
2023-01-02T03:27:57.204Z,57.10
2023-01-02T03:32:57.244Z,54.63
2023-01-02T03:37:54.572Z,58.38
2023-01-02T03:42:53.833Z,53.03
2023-01-02T03:48:15.307Z,54.53
2023-01-02T03:53:09.414Z,50.60
2023-01-02T03:58:08.345Z,47.42
2023-01-02T04:03:06.700Z,51.08
2023-01-02T04:08:17.585Z,49.50
2023-01-02T04:13:18.194Z,45.72
2023-01-02T04:18:23.377Z,51.85
2023-01-02T04:23:34.441Z,49.47
2023-01-02T04:28:29.883Z,44.85
2023-01-02T04:33:24.096Z,48.92
2023-01-02T04:38:17.804Z,39.38
2023-01-02T04:43:21.964Z,32.40
2023-01-02T04:48:15.855Z,35.50
2023-01-02T04:53:11.238Z,39.28
2023-01-02T04:58:05.389Z,36.97
2023-01-02T05:02:58.832Z,35.38
2023-01-02T05:12:46.258Z,35.85
2023-01-02T05:17:41.583Z,39.45
2023-01-02T05:22:52.587Z,33.45
2023-01-02T05:27:47.402Z,30.80
2023-01-02T05:32:41.323Z,33.00
2023-01-02T05:37:35.379Z,30.85
2023-01-02T05:42:29.376Z,35.05
2023-01-02T05:47:22.831Z,30.27
2023-01-02T05:52:15.963Z,29.27
2023-01-02T05:57:12.716Z,33.83
2023-01-02T06:02:05.703Z,37.88
2023-01-02T06:06:59.263Z,37.42
2023-01-02T06:11:52.627Z,36.70
2023-01-02T06:16:46.878Z,41.42
2023-01-02T06:21:40.331Z,33.75
2023-01-02T06:26:35.452Z,31.90
2023-01-02T06:31:30.645Z,32.83
2023-01-02T06:36:24.642Z,34.13
2023-01-02T06:41:22.413Z,34.15
2023-01-02T06:46:18.371Z,31.85
2023-01-02T06:51:17.786Z,32.92
2023-01-02T06:56:15.931Z,43.17
2023-01-02T07:01:40.627Z,46.70
2023-01-02T07:06:35.596Z,31.75
2023-01-02T07:11:29.225Z,34.03
2023-01-02T07:16:23.938Z,32.75
2023-01-02T07:21:19.179Z,32.85
2023-01-02T07:26:12.748Z,32.42
2023-01-02T07:31:30.635Z,34.10
2023-01-02T07:36:24.813Z,28.08
2023-01-02T07:41:20.083Z,30.75
2023-01-02T07:46:14.678Z,25.45
2023-01-02T07:51:09.105Z,30.20
2023-01-02T07:56:04.131Z,28.42
2023-01-02T08:01:04.884Z,27.90
2023-01-02T08:06:10.285Z,30.10
2023-01-02T08:11:31.380Z,29.13
2023-01-02T08:16:25.528Z,29.17
2023-01-02T08:21:18.948Z,29.60
2023-01-02T08:26:12.856Z,29.13
2023-01-02T08:36:03.360Z,25.77
2023-01-02T08:40:59.708Z,26.33
2023-01-02T08:45:53.548Z,29.60
2023-01-02T08:55:39.862Z,27.88
2023-01-02T09:00:33.503Z,27.48
2023-01-02T09:05:28.075Z,26.92
2023-01-02T09:10:22.731Z,28.40
2023-01-02T09:15:16.841Z,26.98
2023-01-02T09:20:11.149Z,29.92
2023-01-02T09:25:06.510Z,33.25
2023-01-02T09:30:00.493Z,32.92
2023-01-02T09:34:54.471Z,32.90
2023-01-02T09:39:48.080Z,36.40
2023-01-02T09:44:48.212Z,42.03
2023-01-02T09:49:55.375Z,51.33
2023-01-02T09:54:49.293Z,51.75
2023-01-02T09:59:51.572Z,50.25
2023-01-02T10:05:08.494Z,39.13
2023-01-02T10:10:13.467Z,37.55
2023-01-02T10:15:08.247Z,37.80
2023-01-02T10:20:24.088Z,30.73
2023-01-02T10:25:56.821Z,28.52
2023-01-02T10:31:12.470Z,29.50
2023-01-02T10:36:06.660Z,27.65
2023-01-02T10:41:00.301Z,28.70
2023-01-02T10:50:50.882Z,25.85
2023-01-02T10:55:46.344Z,23.13
2023-01-02T11:00:40.572Z,25.38
2023-01-02T11:05:34.632Z,24.13
2023-01-02T11:10:39.769Z,26.27
2023-01-02T11:15:37.724Z,29.63
2023-01-02T11:20:35.993Z,22.13
2023-01-02T11:25:43.929Z,23.35
2023-01-02T11:30:51.839Z,20.85
2023-01-02T11:35:51.687Z,19.88
2023-01-02T11:40:58.729Z,26.13
2023-01-02T11:45:53.798Z,20.88
2023-01-02T11:50:47.423Z,21.73
2023-01-02T11:55:47.768Z,20.48
2023-01-02T12:00:43.101Z,21.40
2023-01-02T12:05:45.568Z,23.38
2023-01-02T12:11:03.642Z,25.23
2023-01-02T12:16:08.690Z,23.48
2023-01-02T12:21:25.937Z,24.88
2023-01-02T12:26:25.027Z,24.08
2023-01-02T12:31:31.858Z,22.83
2023-01-02T12:36:37.052Z,28.50
2023-01-02T12:42:00.895Z,30.08
2023-01-02T12:47:14.032Z,34.63
2023-01-02T12:52:06.652Z,38.72
2023-01-02T12:57:05.599Z,40.10
2023-01-02T13:02:20.365Z,33.40
2023-01-02T13:07:31.957Z,33.80
2023-01-02T13:12:27.007Z,29.05
2023-01-02T13:17:38.320Z,33.90
2023-01-02T13:22:55.373Z,34.08
2023-01-02T13:27:51.167Z,32.92
2023-01-02T13:32:45.413Z,29.80
2023-01-02T13:37:38.649Z,27.63
2023-01-02T13:42:54.150Z,28.42
2023-01-02T13:47:50.644Z,35.35
2023-01-02T13:53:09.880Z,28.58
2023-01-02T13:58:14.964Z,32.42
2023-01-02T14:03:25.824Z,34.05
2023-01-02T14:08:24.318Z,30.27
2023-01-02T14:13:30.476Z,30.58
2023-01-02T14:18:31.205Z,32.85
2023-01-02T14:23:29.042Z,35.33
2023-01-02T14:28:48.132Z,31.33
2023-01-02T14:33:40.609Z,35.13
2023-01-02T14:38:39.151Z,33.15
2023-01-02T14:43:36.561Z,31.15
2023-01-02T14:48:59.890Z,32.55
2023-01-02T14:58:52.043Z,31.73
2023-01-02T15:04:12.722Z,39.33
2023-01-02T15:09:15.981Z,33.75
2023-01-02T15:14:23.520Z,35.03
2023-01-02T15:19:23.397Z,39.42
2023-01-02T15:24:39.624Z,41.80
2023-01-02T15:29:37.296Z,42.28
2023-01-02T15:34:33.896Z,45.53
2023-01-02T15:39:36.422Z,46.22
2023-01-02T15:44:54.273Z,47.97
2023-01-02T15:49:48.680Z,49.78
2023-01-02T15:54:42.546Z,47.85
2023-01-02T15:59:38.853Z,45.58
2023-01-02T16:04:34.328Z,46.63
2023-01-02T16:09:31.244Z,49.45
2023-01-02T16:14:48.121Z,74.25
2023-01-02T16:19:56.269Z,54.85
2023-01-02T16:25:01.653Z,48.63
2023-01-02T16:29:56.316Z,48.92
2023-01-02T16:35:04.425Z,53.80
2023-01-02T16:39:59.166Z,50.55
2023-01-02T16:44:57.213Z,53.33
2023-01-02T16:49:50.289Z,48.83
2023-01-02T16:54:46.126Z,56.33
2023-01-02T16:59:43.272Z,52.92
2023-01-02T17:04:37.220Z,47.17
2023-01-02T17:09:31.033Z,53.88
2023-01-02T17:14:24.085Z,56.70
2023-01-02T17:19:19.313Z,54.28
2023-01-02T17:24:12.862Z,53.25
2023-01-02T17:34:02.384Z,53.00
2023-01-02T17:38:55.984Z,52.25
2023-01-02T17:48:56.026Z,52.15
2023-01-02T17:53:52.205Z,56.88
2023-01-02T17:58:46.456Z,48.97
2023-01-02T18:03:40.728Z,46.58
2023-01-02T18:08:35.870Z,58.60
2023-01-02T18:13:30.312Z,54.28
2023-01-02T18:18:25.277Z,46.20
2023-01-02T18:23:19.379Z,49.72
2023-01-02T18:28:26.950Z,52.22
2023-01-02T18:33:22.104Z,51.70
2023-01-02T18:38:24.762Z,45.88
2023-01-02T18:43:28.494Z,50.38
2023-01-02T18:48:23.604Z,42.58
2023-01-02T18:53:22.239Z,52.13
2023-01-02T18:58:37.763Z,49.70
2023-01-02T19:03:32.153Z,43.05
2023-01-02T19:08:36.075Z,46.58
2023-01-02T19:13:33.718Z,41.08
2023-01-02T19:18:47.159Z,42.25
2023-01-02T19:24:00.475Z,42.00
2023-01-02T19:28:58.382Z,44.67
2023-01-02T19:34:02.218Z,52.90
2023-01-02T19:38:56.170Z,74.13
2023-01-02T19:43:50.874Z,47.25
2023-01-02T19:48:45.620Z,55.47
2023-01-02T19:53:40.554Z,52.90
2023-01-02T19:58:34.340Z,50.63
2023-01-02T20:03:28.312Z,50.17
2023-01-02T20:08:21.803Z,46.35
2023-01-02T20:13:15.821Z,54.20
2023-01-02T20:18:13.945Z,51.97
2023-01-02T20:23:09.301Z,49.45
2023-01-02T20:28:04.680Z,50.22
2023-01-02T20:32:58.546Z,51.88
2023-01-02T20:37:52.442Z,45.70
2023-01-02T20:42:46.331Z,50.33
2023-01-02T20:47:40.201Z,48.40
2023-01-02T20:52:33.622Z,59.40
2023-01-02T21:02:21.386Z,60.53
2023-01-02T21:07:14.605Z,48.58
2023-01-02T21:17:21.749Z,53.40
2023-01-02T21:22:15.513Z,59.67
2023-01-02T21:27:13.248Z,64.15
2023-01-02T21:32:10.605Z,67.55
2023-01-02T21:37:04.735Z,51.40
2023-01-02T21:42:16.661Z,58.20
2023-01-02T21:47:11.039Z,57.83
2023-01-02T21:52:04.415Z,65.70
2023-01-02T21:56:58.591Z,61.67
2023-01-02T22:01:54.406Z,67.60
2023-01-02T22:07:30.561Z,55.88
2023-01-02T22:12:02.460Z,52.90
2023-01-02T22:21:50.490Z,59.45
2023-01-02T22:26:44.041Z,54.97
2023-01-02T22:31:37.813Z,61.97
2023-01-02T22:36:36.841Z,64.07
2023-01-02T22:41:39.031Z,60.80
2023-01-02T22:46:36.385Z,53.22
2023-01-02T22:51:57.675Z,56.17
2023-01-02T22:56:44.096Z,53.63
2023-01-02T23:01:39.932Z,54.53
2023-01-02T23:06:38.051Z,54.13
2023-01-02T23:11:44.872Z,58.85
2023-01-02T23:21:53.146Z,59.17
2023-01-02T23:26:49.184Z,59.83
2023-01-02T23:31:45.108Z,66.80
2023-01-02T23:36:38.221Z,65.40
2023-01-02T23:41:32.123Z,75.80
2023-01-02T23:46:25.507Z,66.95
2023-01-02T23:51:19.631Z,78.47
2023-01-02T23:56:27.936Z,66.15
